createdAt,value
2022-10-19T00:00:42.172Z,6.44
2022-10-19T00:01:42.245Z,6.39
2022-10-19T00:02:42.162Z,6.38
2022-10-19T00:03:42.222Z,6.39
2022-10-19T00:04:42.225Z,6.36
2022-10-19T00:05:42.135Z,6.36
2022-10-19T00:06:42.103Z,6.33
2022-10-19T00:07:42.109Z,6.31
2022-10-19T00:08:42.102Z,6.31
2022-10-19T00:09:42.111Z,6.30
2022-10-19T00:10:42.091Z,6.26
2022-10-19T00:11:42.106Z,6.26
2022-10-19T00:12:42.116Z,6.27
2022-10-19T00:13:42.047Z,6.20
2022-10-19T00:14:42.032Z,6.19
2022-10-19T00:15:42.038Z,6.17
2022-10-19T00:16:42.098Z,6.11
2022-10-19T00:17:42.007Z,6.09
2022-10-19T00:18:41.991Z,6.07
2022-10-19T00:19:42.019Z,6.04
2022-10-19T00:20:41.991Z,6.04
2022-10-19T00:21:42.032Z,6.01
2022-10-19T00:22:41.932Z,6.01
2022-10-19T00:23:41.958Z,5.97
2022-10-19T00:24:41.960Z,5.94
2022-10-19T00:25:41.919Z,5.91
2022-10-19T00:26:41.908Z,5.89
2022-10-19T00:27:41.911Z,5.86
2022-10-19T00:28:41.944Z,5.83
2022-10-19T00:29:41.887Z,5.82
2022-10-19T00:30:41.894Z,5.76
2022-10-19T00:31:41.865Z,5.76
2022-10-19T00:32:41.856Z,5.73
2022-10-19T00:33:41.895Z,5.75
2022-10-19T00:34:41.846Z,5.73
2022-10-19T00:35:41.885Z,5.72
2022-10-19T00:36:41.793Z,5.71
2022-10-19T00:37:41.781Z,5.71
2022-10-19T00:38:41.795Z,5.72
2022-10-19T00:39:41.847Z,5.72
2022-10-19T00:40:41.741Z,5.72
2022-10-19T00:41:41.775Z,5.71
2022-10-19T00:42:41.783Z,5.69
2022-10-19T00:43:41.745Z,5.66
2022-10-19T00:44:41.731Z,5.66
2022-10-19T00:45:41.719Z,5.62
2022-10-19T00:46:41.689Z,5.61
2022-10-19T00:47:41.715Z,5.61
2022-10-19T00:48:41.718Z,5.59
2022-10-19T00:49:41.656Z,5.59
2022-10-19T00:50:41.651Z,5.57
2022-10-19T00:51:41.641Z,5.61
2022-10-19T00:52:41.637Z,5.57
2022-10-19T00:53:41.612Z,5.56
2022-10-19T00:54:41.612Z,5.54
2022-10-19T00:55:41.625Z,5.54
2022-10-19T00:56:41.580Z,5.51
2022-10-19T00:57:41.793Z,5.53
2022-10-19T00:58:41.592Z,5.53
2022-10-19T00:59:41.598Z,5.53
2022-10-19T01:00:41.559Z,5.51
2022-10-19T01:01:41.566Z,5.51
2022-10-19T01:02:41.532Z,5.51
2022-10-19T01:03:41.558Z,5.53
2022-10-19T01:04:41.541Z,5.50
2022-10-19T01:05:41.517Z,5.50
2022-10-19T01:06:41.531Z,5.47
2022-10-19T01:07:41.524Z,5.47
2022-10-19T01:08:41.446Z,5.44
2022-10-19T01:09:41.438Z,5.41
2022-10-19T01:10:41.475Z,5.39
2022-10-19T01:11:41.446Z,5.38
2022-10-19T01:12:41.445Z,5.36
2022-10-19T01:13:41.442Z,5.35
2022-10-19T01:14:41.411Z,5.33
2022-10-19T01:15:41.452Z,5.33
2022-10-19T01:16:41.385Z,5.33
2022-10-19T01:17:41.414Z,5.30
2022-10-19T01:18:41.436Z,5.32
2022-10-19T01:19:41.701Z,5.30
2022-10-19T01:20:41.438Z,5.28
2022-10-19T01:21:41.367Z,5.25
2022-10-19T01:22:41.346Z,5.17
2022-10-19T01:23:41.401Z,5.14
2022-10-19T01:24:41.358Z,5.10
2022-10-19T01:25:41.318Z,5.11
2022-10-19T01:26:41.291Z,5.08
2022-10-19T01:27:41.270Z,5.08
2022-10-19T01:28:41.407Z,5.08
2022-10-19T01:29:41.303Z,5.08
2022-10-19T01:30:41.280Z,5.10
2022-10-19T01:31:41.232Z,5.10
2022-10-19T01:32:41.310Z,5.10
2022-10-19T01:33:41.227Z,5.07
2022-10-19T01:34:41.280Z,5.07
2022-10-19T01:35:41.228Z,5.07
2022-10-19T01:36:41.271Z,5.05
2022-10-19T01:37:41.209Z,5.04
2022-10-19T01:38:41.248Z,5.02
2022-10-19T01:39:42.601Z,5.04
2022-10-19T01:40:41.275Z,4.99
2022-10-19T01:41:41.150Z,5.00
2022-10-19T01:42:41.241Z,5.00
2022-10-19T01:43:41.196Z,4.97
2022-10-19T01:44:41.124Z,4.99
2022-10-19T01:45:41.170Z,4.99
2022-10-19T01:46:41.080Z,4.97
2022-10-19T01:47:41.082Z,4.97
2022-10-19T01:48:41.082Z,4.96
2022-10-19T01:49:41.044Z,4.94
2022-10-19T01:50:41.076Z,4.94
2022-10-19T01:51:41.104Z,4.92
2022-10-19T01:52:41.023Z,4.90
2022-10-19T01:53:41.021Z,4.89
2022-10-19T01:54:41.073Z,4.90
2022-10-19T01:55:40.983Z,4.89
2022-10-19T01:56:41.055Z,4.86
2022-10-19T01:57:41.012Z,4.84
2022-10-19T01:58:40.973Z,4.82
2022-10-19T01:59:40.984Z,4.80
2022-10-19T02:00:41.051Z,4.77
2022-10-19T02:01:40.941Z,4.75
2022-10-19T02:02:40.977Z,4.73
2022-10-19T02:03:40.995Z,4.70
2022-10-19T02:04:40.989Z,4.70
2022-10-19T02:05:40.957Z,4.67
2022-10-19T02:06:40.909Z,4.66
2022-10-19T02:07:40.857Z,4.62
2022-10-19T02:08:40.898Z,4.62
2022-10-19T02:09:40.908Z,4.60
2022-10-19T02:10:40.849Z,4.60
2022-10-19T02:11:41.830Z,4.60
2022-10-19T02:12:40.875Z,4.60
2022-10-19T02:13:40.898Z,4.60
2022-10-19T02:14:40.886Z,4.62
2022-10-19T02:15:40.887Z,4.62
2022-10-19T02:16:40.834Z,4.62
2022-10-19T02:17:40.873Z,4.62
2022-10-19T02:18:40.876Z,4.63
2022-10-19T02:19:40.778Z,4.66
2022-10-19T02:20:40.791Z,4.67
2022-10-19T02:21:40.797Z,4.67
2022-10-19T02:22:40.777Z,4.68
2022-10-19T02:23:40.739Z,4.68
2022-10-19T02:24:40.691Z,4.70
2022-10-19T02:25:40.745Z,4.74
2022-10-19T02:26:40.749Z,4.73
2022-10-19T02:27:40.711Z,4.73
2022-10-19T02:28:40.759Z,4.71
2022-10-19T02:29:40.749Z,4.70
2022-10-19T02:30:40.617Z,4.67
2022-10-19T02:31:40.682Z,4.67
2022-10-19T02:32:40.783Z,4.66
2022-10-19T02:33:40.655Z,4.62
2022-10-19T02:34:40.650Z,4.59
2022-10-19T02:35:40.646Z,4.58
2022-10-19T02:36:40.641Z,4.55
2022-10-19T02:37:40.710Z,4.53
2022-10-19T02:38:40.667Z,4.52
2022-10-19T02:39:40.542Z,4.50
2022-10-19T02:40:40.546Z,4.49
2022-10-19T02:41:40.579Z,4.52
2022-10-19T02:42:40.558Z,4.52
2022-10-19T02:43:40.574Z,4.53
2022-10-19T02:44:40.522Z,4.55
2022-10-19T02:45:40.520Z,4.53
2022-10-19T02:47:40.474Z,4.55
2022-10-19T02:48:40.562Z,4.53
2022-10-19T02:49:40.525Z,4.55
2022-10-19T02:50:40.489Z,4.53
2022-10-19T02:51:40.480Z,4.53
2022-10-19T02:52:40.551Z,4.49
2022-10-19T02:53:40.459Z,4.45
2022-10-19T02:54:40.533Z,4.45
2022-10-19T02:56:40.375Z,4.37
2022-10-19T02:57:40.400Z,4.30
2022-10-19T02:58:40.372Z,4.26
2022-10-19T02:59:40.407Z,4.26
2022-10-19T03:00:40.471Z,4.26
2022-10-19T03:01:40.348Z,4.28
2022-10-19T03:02:40.376Z,4.26
2022-10-19T03:03:40.367Z,4.26
2022-10-19T03:04:40.402Z,4.24
2022-10-19T03:05:40.313Z,4.26
2022-10-19T03:06:40.317Z,4.26
2022-10-19T03:07:40.265Z,4.24
2022-10-19T03:08:40.346Z,4.24
2022-10-19T03:09:40.309Z,4.24
2022-10-19T03:10:40.307Z,4.23
2022-10-19T03:11:40.245Z,4.23
2022-10-19T03:12:40.289Z,4.26
2022-10-19T03:13:40.245Z,4.28
2022-10-19T03:14:40.271Z,4.30
2022-10-19T03:15:40.189Z,4.31
2022-10-19T03:16:40.209Z,4.32
2022-10-19T03:17:40.197Z,4.35
2022-10-19T03:18:40.177Z,4.37
2022-10-19T03:19:40.246Z,4.38
2022-10-19T03:20:40.214Z,4.35
2022-10-19T03:21:40.175Z,4.31
2022-10-19T03:22:40.247Z,4.23
2022-10-19T03:23:40.142Z,4.22
2022-10-19T03:24:40.105Z,4.20
2022-10-19T03:25:40.129Z,4.22
2022-10-19T03:26:40.062Z,4.20
2022-10-19T03:27:40.158Z,4.20
2022-10-19T03:28:40.136Z,4.20
2022-10-19T03:29:40.120Z,4.23
2022-10-19T03:30:40.061Z,4.22
2022-10-19T03:31:40.098Z,4.28
2022-10-19T03:32:40.114Z,4.28
2022-10-19T03:33:40.041Z,4.28
2022-10-19T03:34:40.088Z,4.30
2022-10-19T03:35:39.986Z,4.31
2022-10-19T03:36:39.990Z,4.31
2022-10-19T03:37:39.953Z,4.31
2022-10-19T03:38:39.977Z,4.31
2022-10-19T03:39:39.942Z,4.30
2022-10-19T03:40:39.994Z,4.28
2022-10-19T03:41:39.882Z,4.24
2022-10-19T03:42:39.971Z,4.23
2022-10-19T03:43:39.921Z,4.19
2022-10-19T03:44:39.926Z,4.17
2022-10-19T03:45:39.923Z,4.14
2022-10-19T03:46:39.908Z,4.13
2022-10-19T03:47:39.889Z,4.10
2022-10-19T03:48:39.896Z,4.08
2022-10-19T03:49:40.393Z,4.08
2022-10-19T03:50:39.923Z,4.06
2022-10-19T03:51:39.901Z,4.06
2022-10-19T03:52:39.814Z,4.04
2022-10-19T03:53:39.773Z,4.05
2022-10-19T03:54:39.822Z,4.04
2022-10-19T03:55:39.827Z,4.06
2022-10-19T03:56:39.835Z,4.05
2022-10-19T03:57:39.763Z,4.05
2022-10-19T03:58:39.768Z,4.06
2022-10-19T03:59:39.755Z,4.05
2022-10-19T04:00:39.799Z,4.06
2022-10-19T04:01:39.700Z,4.05
2022-10-19T04:02:39.756Z,4.05
2022-10-19T04:03:39.717Z,4.02
2022-10-19T04:04:39.682Z,3.99
2022-10-19T04:05:39.677Z,3.99
2022-10-19T04:06:39.691Z,3.96
2022-10-19T04:07:39.675Z,3.95
2022-10-19T04:08:39.727Z,3.94
2022-10-19T04:09:39.620Z,3.92
2022-10-19T04:10:39.609Z,3.92
2022-10-19T04:11:39.601Z,3.92
2022-10-19T04:12:39.619Z,3.94
2022-10-19T04:13:39.572Z,3.94
2022-10-19T04:14:56.446Z,3.95
2022-10-19T04:15:39.563Z,3.94
2022-10-19T04:16:39.540Z,3.92
2022-10-19T04:17:39.546Z,3.92
2022-10-19T04:18:39.540Z,3.92
2022-10-19T04:19:39.500Z,3.91
2022-10-19T04:20:39.513Z,3.91
2022-10-19T04:21:39.514Z,3.88
2022-10-19T04:22:39.507Z,3.87
2022-10-19T04:23:39.516Z,3.86
2022-10-19T04:24:39.539Z,3.86
2022-10-19T04:25:39.470Z,3.83
2022-10-19T04:26:39.459Z,3.84
2022-10-19T04:27:39.428Z,3.86
2022-10-19T04:28:39.427Z,3.86
2022-10-19T04:29:39.406Z,3.86
2022-10-19T04:30:39.423Z,3.86
2022-10-19T04:31:39.381Z,3.77
2022-10-19T04:32:39.379Z,3.70
2022-10-19T04:33:39.433Z,3.65
2022-10-19T04:34:40.171Z,3.63
2022-10-19T04:35:39.337Z,3.65
2022-10-19T04:36:39.345Z,3.65
2022-10-19T04:37:39.339Z,3.68
2022-10-19T04:38:39.331Z,3.70
2022-10-19T04:39:39.362Z,3.77
2022-10-19T04:40:39.313Z,3.80
2022-10-19T04:41:39.334Z,3.84
2022-10-19T04:42:39.287Z,3.86
2022-10-19T04:43:39.276Z,3.91
2022-10-19T04:44:39.311Z,3.92
2022-10-19T04:45:39.274Z,3.95
2022-10-19T04:46:39.222Z,3.99
2022-10-19T04:47:39.256Z,4.04
2022-10-19T04:48:39.235Z,4.06
2022-10-19T04:49:39.251Z,4.12
2022-10-19T04:50:39.186Z,4.13
2022-10-19T04:51:39.187Z,4.16
2022-10-19T04:52:39.409Z,4.19
2022-10-19T04:53:39.490Z,4.19
2022-10-19T04:54:39.434Z,4.22
2022-10-19T04:55:39.439Z,4.22
2022-10-19T04:56:39.295Z,4.22
2022-10-19T04:57:39.573Z,4.26
2022-10-19T04:58:39.274Z,4.26
2022-10-19T04:59:39.415Z,4.28
2022-10-19T05:00:39.326Z,4.31
2022-10-19T05:01:43.281Z,4.34
2022-10-19T05:02:39.231Z,4.35
2022-10-19T05:03:39.540Z,4.37
2022-10-19T05:04:41.833Z,4.40
2022-10-19T05:05:39.304Z,4.42
2022-10-19T05:06:39.394Z,4.45
2022-10-19T05:07:39.210Z,4.49
2022-10-19T05:08:39.264Z,4.52
2022-10-19T05:09:39.171Z,4.52
2022-10-19T05:10:40.467Z,4.53
2022-10-19T05:11:39.112Z,4.53
2022-10-19T05:12:39.130Z,4.52
2022-10-19T05:13:39.311Z,4.53
2022-10-19T05:14:41.972Z,4.52
2022-10-19T05:15:39.228Z,4.55
2022-10-19T05:16:39.224Z,4.56
2022-10-19T05:17:39.036Z,4.56
2022-10-19T05:18:39.109Z,4.60
2022-10-19T05:19:39.154Z,4.60
2022-10-19T05:20:39.167Z,4.62
2022-10-19T05:21:39.061Z,4.63
2022-10-19T05:22:39.073Z,4.66
2022-10-19T05:23:39.107Z,4.70
2022-10-19T05:24:38.995Z,4.73
2022-10-19T05:25:38.941Z,4.75
2022-10-19T05:26:39.153Z,4.77
2022-10-19T05:27:39.031Z,4.77
2022-10-19T05:28:38.955Z,4.78
2022-10-19T05:29:38.852Z,4.80
2022-10-19T05:30:38.981Z,4.82
2022-10-19T05:31:39.088Z,4.86
2022-10-19T05:32:38.860Z,4.84
2022-10-19T05:33:38.874Z,4.86
2022-10-19T05:34:38.951Z,4.86
2022-10-19T05:35:38.821Z,4.86
2022-10-19T05:36:38.833Z,4.86
2022-10-19T05:37:38.798Z,4.86
2022-10-19T05:38:38.822Z,4.87
2022-10-19T05:39:38.884Z,4.87
2022-10-19T05:40:38.777Z,4.89
2022-10-19T05:41:38.890Z,4.89
2022-10-19T05:42:38.792Z,4.89
2022-10-19T05:43:38.765Z,4.90
2022-10-19T05:45:38.907Z,4.94
2022-10-19T05:46:38.701Z,4.93
2022-10-19T05:47:38.762Z,4.96
2022-10-19T05:48:38.694Z,4.94
2022-10-19T05:49:38.777Z,4.96
2022-10-19T05:50:38.622Z,4.96
2022-10-19T05:51:38.634Z,4.97
2022-10-19T05:52:38.754Z,4.97
2022-10-19T05:54:38.615Z,4.99
2022-10-19T05:55:38.637Z,4.97
2022-10-19T05:56:38.641Z,4.99
2022-10-19T05:57:38.599Z,4.97
2022-10-19T05:58:38.558Z,4.96
2022-10-19T05:59:38.597Z,4.97
2022-10-19T06:00:38.521Z,4.97
2022-10-19T06:01:38.556Z,5.02
2022-10-19T06:02:38.527Z,4.99
2022-10-19T06:03:38.552Z,4.99
2022-10-19T06:04:38.454Z,4.97
2022-10-19T06:05:38.526Z,5.00
2022-10-19T06:06:38.763Z,5.02
2022-10-19T06:07:38.448Z,5.04
2022-10-19T06:08:38.464Z,5.05
2022-10-19T06:09:38.463Z,5.07
2022-10-19T06:10:38.369Z,5.10
2022-10-19T06:11:38.350Z,5.11
2022-10-19T06:12:38.358Z,5.12
2022-10-19T06:13:38.404Z,5.15
2022-10-19T06:14:38.444Z,5.15
2022-10-19T06:15:38.435Z,5.15
2022-10-19T06:16:38.408Z,5.18
2022-10-19T06:17:38.370Z,5.20
2022-10-19T06:18:38.318Z,5.21
2022-10-19T06:19:38.308Z,5.23
2022-10-19T06:20:38.415Z,5.23
2022-10-19T06:21:40.648Z,5.25
2022-10-19T06:22:38.322Z,5.23
2022-10-19T06:23:38.361Z,5.25
2022-10-19T06:24:38.421Z,5.26
2022-10-19T06:25:38.287Z,5.26
2022-10-19T06:26:38.303Z,5.28
2022-10-19T06:27:38.633Z,5.28
2022-10-19T06:28:38.248Z,5.26
2022-10-19T06:29:38.203Z,5.29
2022-10-19T06:30:38.298Z,5.32
2022-10-19T06:31:38.218Z,5.32
2022-10-19T06:32:38.180Z,5.35
2022-10-19T06:33:38.284Z,5.38
2022-10-19T06:34:38.147Z,5.43
2022-10-19T06:35:38.152Z,5.43
2022-10-19T06:36:38.172Z,5.43
2022-10-19T06:37:38.155Z,5.46
2022-10-19T06:38:38.167Z,5.48
2022-10-19T06:39:38.124Z,5.48
2022-10-19T06:40:38.091Z,5.53
2022-10-19T06:41:38.091Z,5.54
2022-10-19T06:42:38.227Z,5.56
2022-10-19T06:43:38.130Z,5.54
2022-10-19T06:44:38.093Z,5.57
2022-10-19T06:45:38.011Z,5.59
2022-10-19T06:46:38.016Z,5.64
2022-10-19T06:47:38.544Z,5.66
2022-10-19T06:48:38.032Z,5.69
2022-10-19T06:49:37.966Z,5.72
2022-10-19T06:50:37.985Z,5.73
2022-10-19T06:51:37.991Z,5.75
2022-10-19T06:52:38.035Z,5.79
2022-10-19T06:53:37.973Z,5.80
2022-10-19T06:54:38.021Z,5.82
2022-10-19T06:55:38.092Z,5.84
2022-10-19T06:56:37.985Z,5.83
2022-10-19T06:57:38.042Z,5.87
2022-10-19T06:58:37.915Z,5.91
2022-10-19T06:59:37.976Z,5.93
2022-10-19T07:00:37.930Z,5.93
2022-10-19T07:01:37.890Z,5.97
2022-10-19T07:02:37.860Z,5.99
2022-10-19T07:03:37.793Z,5.99
2022-10-19T07:04:37.813Z,5.99
2022-10-19T07:05:37.874Z,6.02
2022-10-19T07:06:37.809Z,6.05
2022-10-19T07:07:38.203Z,6.07
2022-10-19T07:08:37.829Z,6.09
2022-10-19T07:09:37.774Z,6.11
2022-10-19T07:10:37.751Z,6.12
2022-10-19T07:11:38.880Z,6.16
2022-10-19T07:12:37.767Z,6.16
2022-10-19T07:13:37.818Z,6.17
2022-10-19T07:14:37.739Z,6.17
2022-10-19T07:15:37.749Z,6.19
2022-10-19T07:16:37.710Z,6.17
2022-10-19T07:17:37.810Z,6.22
2022-10-19T07:18:37.704Z,6.27
2022-10-19T07:19:37.613Z,6.31
2022-10-19T07:20:37.725Z,6.39
2022-10-19T07:21:37.789Z,6.41
2022-10-19T07:22:37.627Z,6.42
2022-10-19T07:23:37.692Z,6.46
2022-10-19T07:24:37.587Z,6.52
2022-10-19T07:25:37.629Z,6.57
2022-10-19T07:26:37.626Z,6.62
2022-10-19T07:27:37.928Z,6.66
2022-10-19T07:28:37.658Z,6.70
2022-10-19T07:29:37.590Z,6.72
2022-10-19T07:30:37.567Z,6.75
2022-10-19T07:31:37.527Z,6.77
2022-10-19T07:32:37.647Z,6.78
2022-10-19T07:33:37.595Z,6.79
2022-10-19T07:34:37.529Z,6.82
2022-10-19T07:35:37.548Z,6.87
2022-10-19T07:36:37.495Z,6.93
2022-10-19T07:37:37.551Z,6.99
2022-10-19T07:38:37.522Z,7.05
2022-10-19T07:39:37.556Z,7.10
2022-10-19T07:40:37.557Z,7.13
2022-10-19T07:41:37.438Z,7.17
2022-10-19T07:42:37.407Z,7.23
2022-10-19T07:43:37.472Z,7.29
2022-10-19T07:44:37.581Z,7.35
2022-10-19T07:45:37.523Z,7.35
2022-10-19T07:46:37.470Z,7.35
2022-10-19T07:47:37.508Z,7.36
2022-10-19T07:48:37.377Z,7.39
2022-10-19T07:49:37.431Z,7.43
2022-10-19T07:50:37.375Z,7.48
2022-10-19T07:51:37.445Z,7.51
2022-10-19T07:52:37.562Z,7.54
2022-10-19T07:53:37.386Z,7.57
2022-10-19T07:54:37.352Z,7.57
2022-10-19T07:55:37.407Z,7.57
2022-10-19T07:56:37.403Z,7.58
2022-10-19T07:57:37.296Z,7.61
2022-10-19T07:58:37.341Z,7.63
2022-10-19T07:59:37.248Z,7.56
2022-10-19T08:00:37.248Z,7.51
2022-10-19T08:01:37.284Z,7.54
2022-10-19T08:02:54.682Z,7.56
2022-10-19T08:05:37.286Z,7.58
2022-10-19T08:06:37.217Z,7.60
2022-10-19T08:07:37.280Z,7.67
2022-10-19T08:08:37.241Z,7.67
2022-10-19T08:09:53.926Z,7.70
2022-10-19T08:10:37.115Z,7.70
2022-10-19T08:11:37.221Z,7.73
2022-10-19T08:12:37.203Z,7.76
2022-10-19T08:13:37.240Z,7.77
2022-10-19T08:14:37.077Z,7.82
2022-10-19T08:15:37.148Z,7.85
2022-10-19T08:16:37.093Z,7.87
2022-10-19T08:17:37.057Z,7.91
2022-10-19T08:18:37.044Z,7.94
2022-10-19T08:19:37.057Z,7.94
2022-10-19T08:20:37.064Z,7.97
2022-10-19T08:21:37.014Z,8.00
2022-10-19T08:22:37.141Z,8.01
2022-10-19T08:23:36.954Z,8.01
2022-10-19T08:24:37.005Z,8.01
2022-10-19T08:25:36.952Z,8.03
2022-10-19T08:26:36.903Z,8.08
2022-10-19T08:28:36.937Z,8.15
2022-10-19T08:29:36.899Z,8.20
2022-10-19T08:30:36.919Z,8.24
2022-10-19T08:31:36.890Z,8.30
2022-10-19T08:32:37.130Z,8.33
2022-10-19T08:33:36.955Z,8.41
2022-10-19T08:34:36.882Z,8.49
2022-10-19T08:35:36.874Z,8.56
2022-10-19T08:36:36.919Z,8.67
2022-10-19T08:37:44.720Z,8.73
2022-10-19T08:38:36.872Z,8.78
2022-10-19T08:39:36.774Z,8.85
2022-10-19T08:40:36.837Z,8.99
2022-10-19T08:41:36.846Z,9.06
2022-10-19T08:42:36.906Z,9.13
2022-10-19T08:43:36.802Z,9.19
2022-10-19T08:44:36.782Z,9.28
2022-10-19T08:45:36.825Z,9.37
2022-10-19T08:46:36.771Z,9.43
2022-10-19T08:47:37.127Z,9.46
2022-10-19T08:48:36.700Z,9.51
2022-10-19T08:49:36.795Z,9.58
2022-10-19T08:50:36.715Z,9.62
2022-10-19T08:51:36.706Z,9.72
2022-10-19T08:52:36.754Z,9.77
2022-10-19T08:53:36.691Z,9.77
2022-10-19T08:54:36.706Z,9.83
2022-10-19T08:55:36.651Z,9.89
2022-10-19T08:56:50.675Z,9.94
2022-10-19T08:57:36.877Z,10.04
2022-10-19T08:58:36.582Z,10.10
2022-10-19T08:59:36.661Z,10.19
2022-10-19T09:00:36.704Z,10.30
2022-10-19T09:01:37.736Z,10.37
2022-10-19T09:02:36.771Z,10.48
2022-10-19T09:03:56.903Z,10.61
2022-10-19T09:04:36.612Z,10.71
2022-10-19T09:05:36.536Z,10.78
2022-10-19T09:06:36.491Z,10.89
2022-10-19T09:07:36.839Z,10.97
2022-10-19T09:08:36.505Z,11.05
2022-10-19T09:09:36.524Z,11.11
2022-10-19T09:10:36.485Z,11.18
2022-10-19T09:11:36.473Z,11.26
2022-10-19T09:12:36.566Z,11.32
2022-10-19T09:13:41.658Z,11.37
2022-10-19T09:14:36.450Z,11.44
2022-10-19T09:15:36.441Z,11.51
2022-10-19T09:16:36.509Z,11.57
2022-10-19T09:17:36.456Z,11.62
2022-10-19T09:18:36.402Z,11.68
2022-10-19T09:19:36.354Z,11.69
2022-10-19T09:20:36.397Z,11.75
2022-10-19T09:21:42.058Z,11.78
2022-10-19T09:22:36.697Z,11.88
2022-10-19T09:23:36.325Z,11.99
2022-10-19T09:24:36.474Z,12.06
2022-10-19T09:25:36.387Z,12.12
2022-10-19T09:26:36.333Z,12.22
2022-10-19T09:27:36.405Z,12.27
2022-10-19T09:28:39.702Z,12.25
2022-10-19T09:29:36.265Z,12.27
2022-10-19T09:30:36.295Z,12.32
2022-10-19T09:31:40.362Z,12.42
2022-10-19T09:32:36.466Z,12.45
2022-10-19T09:33:36.222Z,12.47
2022-10-19T09:34:36.264Z,12.55
2022-10-19T09:35:36.227Z,12.62
2022-10-19T09:36:50.129Z,12.64
2022-10-19T09:37:36.229Z,12.72
2022-10-19T09:38:36.190Z,12.78
2022-10-19T09:39:36.214Z,12.83
2022-10-19T09:40:36.105Z,12.85
2022-10-19T09:41:36.130Z,12.83
2022-10-19T09:42:36.421Z,12.82
2022-10-19T09:43:36.117Z,12.85
2022-10-19T09:44:36.078Z,12.93
2022-10-19T09:45:36.155Z,12.94
2022-10-19T09:46:38.656Z,12.95
2022-10-19T09:47:36.409Z,12.97
2022-10-19T09:48:36.014Z,12.98
2022-10-19T09:49:36.040Z,12.98
2022-10-19T09:50:36.003Z,13.03
2022-10-19T09:51:36.011Z,13.08
2022-10-19T09:52:36.048Z,13.04
2022-10-19T09:53:35.970Z,13.08
2022-10-19T09:54:35.974Z,13.08
2022-10-19T09:55:36.033Z,13.11
2022-10-19T09:56:35.951Z,13.16
2022-10-19T09:57:36.211Z,13.23
2022-10-19T09:58:35.935Z,13.23
2022-10-19T09:59:35.942Z,13.27
2022-10-19T10:00:35.921Z,13.31
2022-10-19T10:01:41.795Z,13.39
2022-10-19T10:02:36.175Z,13.38
2022-10-19T10:03:35.910Z,13.42
2022-10-19T10:04:35.890Z,13.52
2022-10-19T10:05:35.907Z,13.56
2022-10-19T10:06:35.888Z,13.56
2022-10-19T10:07:36.244Z,13.57
2022-10-19T10:08:35.917Z,13.63
2022-10-19T10:09:35.830Z,13.70
2022-10-19T10:10:35.824Z,13.72
2022-10-19T10:11:35.878Z,13.78
2022-10-19T10:12:36.061Z,13.81
2022-10-19T10:13:35.788Z,13.81
2022-10-19T10:14:35.747Z,13.78
2022-10-19T10:15:35.803Z,13.86
2022-10-19T10:16:35.854Z,13.95
2022-10-19T10:17:35.725Z,14.00
2022-10-19T10:18:35.738Z,13.96
2022-10-19T10:19:35.729Z,14.04
2022-10-19T10:20:35.702Z,14.10
2022-10-19T10:21:35.702Z,14.12
2022-10-19T10:22:36.048Z,14.23
2022-10-19T10:23:35.681Z,14.30
2022-10-19T10:24:35.639Z,14.32
2022-10-19T10:25:35.667Z,14.40
2022-10-19T10:27:36.015Z,14.40
2022-10-19T10:28:35.641Z,14.30
2022-10-19T10:29:35.737Z,14.35
2022-10-19T10:30:35.612Z,14.33
2022-10-19T10:31:35.562Z,14.36
2022-10-19T10:32:36.001Z,14.41
2022-10-19T10:33:50.401Z,14.45
2022-10-19T10:34:49.467Z,14.51
2022-10-19T10:35:35.530Z,14.58
2022-10-19T10:36:35.528Z,14.62
2022-10-19T10:37:35.939Z,14.72
2022-10-19T10:38:35.498Z,14.78
2022-10-19T10:39:35.510Z,14.84
2022-10-19T10:40:35.481Z,14.82
2022-10-19T10:41:35.480Z,14.81
2022-10-19T10:42:35.867Z,14.88
2022-10-19T10:43:35.457Z,14.94
2022-10-19T10:44:35.445Z,15.02
2022-10-19T10:45:35.415Z,15.02
2022-10-19T10:46:35.444Z,15.02
2022-10-19T10:47:35.791Z,15.04
2022-10-19T10:48:35.432Z,15.09
2022-10-19T10:49:35.431Z,15.07
2022-10-19T10:50:35.387Z,15.14
2022-10-19T10:51:35.399Z,15.17
2022-10-19T10:52:35.642Z,15.19
2022-10-19T10:53:35.364Z,15.21
2022-10-19T10:54:35.354Z,15.17
2022-10-19T10:55:35.356Z,15.19
2022-10-19T10:56:35.383Z,15.15
2022-10-19T10:57:35.280Z,15.07
2022-10-19T10:58:35.312Z,15.04
2022-10-19T10:59:35.270Z,15.07
2022-10-19T11:00:35.299Z,15.10
2022-10-19T11:01:35.357Z,15.10
2022-10-19T11:02:35.267Z,15.17
2022-10-19T11:03:35.212Z,15.28
2022-10-19T11:04:35.257Z,15.35
2022-10-19T11:05:35.228Z,15.37
2022-10-19T11:06:35.201Z,15.37
2022-10-19T11:07:35.629Z,15.37
2022-10-19T11:08:35.254Z,15.31
2022-10-19T11:09:35.173Z,15.19
2022-10-19T11:10:35.169Z,15.09
2022-10-19T11:11:35.130Z,15.02
2022-10-19T11:12:35.340Z,15.06
2022-10-19T11:13:35.161Z,15.04
2022-10-19T11:14:35.137Z,15.09
2022-10-19T11:15:35.115Z,15.11
2022-10-19T11:16:35.106Z,15.24
2022-10-19T11:17:35.204Z,15.33
2022-10-19T11:18:35.081Z,15.47
2022-10-19T11:19:35.083Z,15.57
2022-10-19T11:20:35.068Z,15.52
2022-10-19T11:21:35.069Z,15.55
2022-10-19T11:22:35.359Z,15.52
2022-10-19T11:23:35.044Z,15.36
2022-10-19T11:24:35.009Z,15.24
2022-10-19T11:25:35.018Z,15.21
2022-10-19T11:26:34.965Z,15.17
2022-10-19T11:27:35.363Z,15.18
2022-10-19T11:28:34.987Z,15.25
2022-10-19T11:29:34.954Z,15.21
2022-10-19T11:30:38.898Z,15.22
2022-10-19T11:31:34.969Z,15.28
2022-10-19T11:32:35.262Z,15.31
2022-10-19T11:33:34.968Z,15.37
2022-10-19T11:34:34.938Z,15.46
2022-10-19T11:35:34.909Z,15.57
2022-10-19T11:36:34.878Z,15.55
2022-10-19T11:37:35.109Z,15.61
2022-10-19T11:38:34.887Z,15.54
2022-10-19T11:39:34.888Z,15.51
2022-10-19T11:40:34.831Z,15.47
2022-10-19T11:41:34.870Z,15.43
2022-10-19T11:42:34.990Z,15.51
2022-10-19T11:43:34.797Z,15.52
2022-10-19T11:44:34.797Z,15.49
2022-10-19T11:45:34.790Z,15.55
2022-10-19T11:46:34.800Z,15.52
2022-10-19T11:47:34.977Z,15.54
2022-10-19T11:48:34.738Z,15.51
2022-10-19T11:49:34.726Z,15.46
2022-10-19T11:50:34.804Z,15.43
2022-10-19T11:51:34.710Z,15.43
2022-10-19T11:52:34.965Z,15.46
2022-10-19T11:53:34.728Z,15.46
2022-10-19T11:54:34.682Z,15.46
2022-10-19T11:55:34.686Z,15.49
2022-10-19T11:56:44.689Z,15.54
2022-10-19T11:57:35.005Z,15.54
2022-10-19T11:58:35.263Z,15.64
2022-10-19T11:59:34.683Z,15.67
2022-10-19T12:00:39.144Z,15.67
2022-10-19T12:01:34.804Z,15.62
2022-10-19T12:02:34.954Z,15.58
2022-10-19T12:03:34.594Z,15.59
2022-10-19T12:04:34.634Z,15.65
2022-10-19T12:05:34.620Z,15.70
2022-10-19T12:06:34.584Z,15.76
2022-10-19T12:07:34.556Z,15.70
2022-10-19T12:08:34.561Z,15.62
2022-10-19T12:09:34.569Z,15.52
2022-10-19T12:10:34.548Z,15.44
2022-10-19T12:11:34.507Z,15.47
2022-10-19T12:12:34.743Z,15.52
2022-10-19T12:13:34.485Z,15.54
2022-10-19T12:14:34.513Z,15.57
2022-10-19T12:15:35.343Z,15.57
2022-10-19T12:16:34.439Z,15.67
2022-10-19T12:17:34.725Z,15.72
2022-10-19T12:18:34.426Z,15.80
2022-10-19T12:19:34.444Z,15.86
2022-10-19T12:20:36.784Z,15.88
2022-10-19T12:21:34.645Z,15.86
2022-10-19T12:22:34.398Z,15.84
2022-10-19T12:23:34.367Z,15.82
2022-10-19T12:24:34.408Z,15.77
2022-10-19T12:25:34.361Z,15.72
2022-10-19T12:26:34.346Z,15.67
2022-10-19T12:27:34.656Z,15.64
2022-10-19T12:28:34.333Z,15.61
2022-10-19T12:29:34.332Z,15.55
2022-10-19T12:30:34.339Z,15.49
2022-10-19T12:31:34.315Z,15.46
2022-10-19T12:32:34.296Z,15.43
2022-10-19T12:33:34.322Z,15.44
2022-10-19T12:34:34.254Z,15.44
2022-10-19T12:35:34.254Z,15.43
2022-10-19T12:36:34.274Z,15.37
2022-10-19T12:37:34.516Z,15.37
2022-10-19T12:38:34.208Z,15.31
2022-10-19T12:39:34.217Z,15.27
2022-10-19T12:40:34.199Z,15.24
2022-10-19T12:41:34.205Z,15.19
2022-10-19T12:42:34.204Z,15.15
2022-10-19T12:43:34.214Z,15.19
2022-10-19T12:44:34.214Z,15.25
2022-10-19T12:45:34.124Z,15.27
2022-10-19T12:46:34.190Z,15.29
2022-10-19T12:47:34.481Z,15.35
2022-10-19T12:48:34.127Z,15.35
2022-10-19T12:49:34.096Z,15.35
2022-10-19T12:50:37.704Z,15.36
2022-10-19T12:51:34.066Z,15.35
2022-10-19T12:52:34.420Z,15.35
2022-10-19T12:53:34.066Z,15.36
2022-10-19T12:54:34.054Z,15.33
2022-10-19T12:55:34.043Z,15.33
2022-10-19T12:56:34.091Z,15.39
2022-10-19T12:57:34.088Z,15.36
2022-10-19T12:58:33.989Z,15.39
2022-10-19T12:59:34.026Z,15.40
2022-10-19T13:00:34.085Z,15.42
2022-10-19T13:01:33.949Z,15.36
2022-10-19T13:03:33.942Z,15.44
2022-10-19T13:04:33.983Z,15.47
2022-10-19T13:05:33.929Z,15.47
2022-10-19T13:06:33.901Z,15.51
2022-10-19T13:07:34.123Z,15.54
2022-10-19T13:08:33.937Z,15.49
2022-10-19T13:09:33.925Z,15.47
2022-10-19T13:10:33.971Z,15.52
2022-10-19T13:12:34.101Z,15.52
2022-10-19T13:13:33.836Z,15.54
2022-10-19T13:14:33.852Z,15.55
2022-10-19T13:15:33.860Z,15.58
2022-10-19T13:16:33.814Z,15.58
2022-10-19T13:17:34.314Z,15.59
2022-10-19T13:18:33.797Z,15.61
2022-10-19T13:19:33.843Z,15.58